Time;durP1;ratioP1;P1;durP2;ratioP2;P2;SDS_P1;SDS_P2;PMS_P1;PMS_P2;Temp;Humidity;BMP_temperature;BMP_pressure;BME280_temperature;BME280_humidity;BME280_pressure;Samples;Min_cycle;Max_cycle;Signal;HPM_P1;HPM_P2
2022/08/06 02:53:00;;;;;;;4.50;3.20;;;16.00;92.20;;;;;;6335346;22;20017;-75
2022/08/06 02:56:06;;;;;;;7.47;2.47;;;16.00;92.10;;;;;;6332893;22;20010;-74
2022/08/06 02:59:12;;;;;;;10.93;2.42;;;16.00;92.00;;;;;;6333722;22;20513;-71
2022/08/06 03:02:18;;;;;;;6.95;1.92;;;16.00;91.90;;;;;;6334711;22;20052;-75
2022/08/06 03:05:24;;;;;;;9.38;2.50;;;16.00;91.90;;;;;;6334064;22;20029;-77
2022/08/06 03:08:30;;;;;;;5.25;2.60;;;15.90;91.80;;;;;;6333384;22;20068;-76
2022/08/06 03:11:36;;;;;;;7.78;2.75;;;15.90;91.80;;;;;;6333971;22;20013;-74
2022/08/06 03:14:43;;;;;;;3.63;2.50;;;15.90;91.80;;;;;;6334614;22;20007;-74
2022/08/06 03:17:49;;;;;;;3.10;1.67;;;15.90;91.80;;;;;;6333249;22;20733;-77
2022/08/06 03:20:55;;;;;;;8.70;1.67;;;15.90;91.80;;;;;;6333730;22;20006;-76
2022/08/06 03:24:01;;;;;;;5.97;2.20;;;15.90;91.80;;;;;;6334487;22;20011;-72
2022/08/06 03:27:07;;;;;;;6.95;2.55;;;15.90;91.80;;;;;;6334559;22;20014;-73
2022/08/06 03:30:13;;;;;;;13.27;2.42;;;15.90;91.80;;;;;;6333330;22;20334;-77
2022/08/06 03:33:19;;;;;;;10.48;3.10;;;15.90;91.90;;;;;;6334540;22;20509;-75
2022/08/06 03:36:25;;;;;;;5.03;1.48;;;15.90;91.90;;;;;;6335414;22;20003;-77
2022/08/06 03:39:31;;;;;;;12.57;1.88;;;15.90;92.10;;;;;;6333924;22;19998;-76
2022/08/06 03:42:37;;;;;;;11.98;2.22;;;15.80;92.00;;;;;;6333741;22;20006;-71
2022/08/06 03:45:43;;;;;;;17.80;6.50;;;15.80;91.70;;;;;;6335184;22;20049;-76
2022/08/06 03:48:49;;;;;;;28.25;7.00;;;15.80;91.90;;;;;;6334412;22;20459;-73
2022/08/06 03:51:55;;;;;;;13.00;4.47;;;15.80;92.00;;;;;;6332401;22;20003;-73
2022/08/06 03:55:08;;;;;;;10.48;3.08;;;15.80;91.90;;;;;;6330688;22;20010;-77
2022/08/06 03:57:41;;;;;;;6.35;2.33;;;15.70;91.80;;;;;;6333358;22;20023;-74
2022/08/06 04:00:11;;;;;;;5.65;1.85;;;15.70;91.70;;;;;;6332551;22;20035;-70
2022/08/06 04:02:58;;;;;;;8.85;2.80;;;15.70;91.60;;;;;;6333690;22;20009;-76
2022/08/06 04:05:32;;;;;;;6.88;3.08;;;15.70;91.50;;;;;;6298498;22;20024;-72
2022/08/06 04:08:02;;;;;;;7.80;2.42;;;15.70;91.40;;;;;;6300810;22;20011;-75
2022/08/06 04:10:44;;;;;;;10.25;2.42;;;15.70;91.40;;;;;;6303099;22;20053;-76
2022/08/06 04:13:17;;;;;;;6.95;2.42;;;15.60;91.30;;;;;;6300662;22;20007;-77
2022/08/06 04:16:23;;;;;;;7.80;1.60;;;15.70;91.30;;;;;;6303305;22;20006;-77
2022/08/06 04:19:29;;;;;;;18.27;2.85;;;15.60;91.30;;;;;;6300002;22;20011;-77
2022/08/06 04:22:35;;;;;;;8.98;2.00;;;15.60;91.30;;;;;;6299880;22;20700;-76
2022/08/06 04:25:41;;;;;;;11.80;2.13;;;15.60;91.30;;;;;;6302260;22;20007;-76
2022/08/06 04:28:48;;;;;;;9.77;3.90;;;15.60;91.30;;;;;;6302429;22;20494;-76
2022/08/06 04:31:54;;;;;;;24.48;6.32;;;15.60;91.30;;;;;;6301793;22;19999;-76
2022/08/06 04:35:03;;;;;;;21.23;8.35;;;15.60;91.50;;;;;;6302544;22;20021;-75
2022/08/06 04:38:09;;;;;;;11.60;4.22;;;15.60;91.80;;;;;;6302708;22;20003;-71
2022/08/06 04:41:18;;;;;;;9.95;2.30;;;15.60;91.70;;;;;;6302754;22;20007;-77
2022/08/06 04:44:27;;;;;;;12.43;2.42;;;15.60;91.70;;;;;;6301674;22;20003;-77
2022/08/06 04:47:33;;;;;;;10.80;1.95;;;15.60;91.60;;;;;;6301831;22;20061;-73
2022/08/06 04:50:39;;;;;;;7.53;2.90;;;15.60;91.50;;;;;;6300962;22;20488;-71
2022/08/06 04:53:45;;;;;;;8.20;2.00;;;15.60;91.50;;;;;;6301892;22;20003;-72
2022/08/06 04:56:52;;;;;;;7.82;2.53;;;15.60;91.40;;;;;;6301529;22;20379;-71
2022/08/06 04:59:58;;;;;;;8.13;1.75;;;15.50;91.30;;;;;;6302988;22;20006;-75
2022/08/06 05:03:04;;;;;;;7.45;1.85;;;15.50;91.30;;;;;;6302967;22;20000;-75
2022/08/06 05:06:22;;;;;;;9.90;2.17;;;15.50;91.40;;;;;;6330354;22;20513;-70
2022/08/06 05:09:28;;;;;;;10.75;2.05;;;15.50;91.40;;;;;;6332346;22;20010;-77
2022/08/06 05:12:43;;;;;;;7.82;2.70;;;15.50;91.30;;;;;;6333144;22;20429;-75
2022/08/06 05:15:56;;;;;;;22.55;13.63;;;15.50;91.40;;;;;;6334304;22;20421;-76
2022/08/06 05:19:03;;;;;;;18.23;8.38;;;15.50;91.40;;;;;;6334115;22;19999;-76
2022/08/06 05:22:09;;;;;;;15.52;4.72;;;15.50;91.40;;;;;;6335391;22;20003;-78
2022/08/06 05:25:15;;;;;;;11.45;5.38;;;15.50;91.30;;;;;;6335388;22;20013;-79
2022/08/06 05:28:21;;;;;;;3.85;2.05;;;15.50;91.60;;;;;;6334488;22;20028;-71
2022/08/06 05:31:27;;;;;;;5.75;1.63;;;15.50;91.10;;;;;;6306236;22;20024;-81
2022/08/06 05:34:33;;;;;;;4.80;1.35;;;15.40;91.00;;;;;;6335206;22;20002;-76
2022/08/06 05:37:39;;;;;;;4.13;1.13;;;15.40;90.90;;;;;;6334792;22;20136;-74
2022/08/06 05:40:08;;;;;;;11.40;2.88;;;15.40;90.80;;;;;;6333815;22;20002;-74
2022/08/06 05:42:35;;;;;;;9.85;2.83;;;15.40;90.80;;;;;;6335686;22;20440;-74
2022/08/06 05:45:01;;;;;;;10.05;3.20;;;15.40;90.80;;;;;;6334610;22;20311;-75
2022/08/06 05:47:34;;;;;;;8.77;2.83;;;15.40;90.80;;;;;;6335274;22;20295;-73
2022/08/06 05:50:17;;;;;;;15.98;4.45;;;15.40;90.70;;;;;;6335293;22;20007;-71
2022/08/06 05:52:52;;;;;;;9.73;3.42;;;15.40;90.70;;;;;;6333975;22;20082;-75
2022/08/06 05:55:41;;;;;;;4.45;2.15;;;15.40;90.70;;;;;;6335244;22;20440;-74
2022/08/06 05:58:17;;;;;;;7.63;2.50;;;15.40;90.60;;;;;;6314250;22;20394;-73
2022/08/06 06:00:45;;;;;;;7.68;2.10;;;15.40;90.60;;;;;;6306508;22;20361;-74
2022/08/06 06:03:16;;;;;;;10.27;2.28;;;15.40;90.60;;;;;;6334837;22;20149;-71
2022/08/06 06:05:44;;;;;;;9.52;2.65;;;15.40;90.60;;;;;;6333664;22;20044;-72
2022/08/06 06:08:10;;;;;;;8.02;3.53;;;15.40;90.50;;;;;;6335121;22;20414;-72
2022/08/06 06:10:39;;;;;;;6.47;1.55;;;15.30;90.50;;;;;;6334058;22;20022;-74
2022/08/06 06:13:07;;;;;;;12.77;3.22;;;15.30;90.70;;;;;;6335256;22;20075;-74
2022/08/06 06:15:40;;;;;;;12.55;5.07;;;15.20;90.90;;;;;;6334382;22;20025;-73
2022/08/06 06:18:19;;;;;;;7.43;3.05;;;15.20;91.00;;;;;;6334193;22;19999;-73
2022/08/06 06:21:08;;;;;;;6.03;2.25;;;15.20;91.10;;;;;;6335422;22;20013;-73
2022/08/06 06:23:49;;;;;;;5.82;1.80;;;15.20;91.10;;;;;;6334027;22;20403;-73
2022/08/06 06:26:33;;;;;;;4.03;1.63;;;15.30;91.10;;;;;;6335076;22;20035;-72
2022/08/06 06:29:21;;;;;;;14.70;2.58;;;15.20;91.00;;;;;;6335040;22;20003;-73
2022/08/06 06:32:03;;;;;;;6.75;1.75;;;15.30;91.10;;;;;;6332867;22;20396;-74
2022/08/06 06:34:41;;;;;;;5.22;2.42;;;15.30;91.20;;;;;;6335802;22;20311;-70
2022/08/06 06:37:19;;;;;;;6.53;2.30;;;15.30;91.20;;;;;;6335174;22;20003;-72
2022/08/06 06:40:13;;;;;;;10.85;2.22;;;15.30;91.20;;;;;;6334665;22;19998;-71
2022/08/06 06:42:50;;;;;;;7.43;1.63;;;15.30;91.20;;;;;;6335575;22;20003;-73
2022/08/06 06:45:36;;;;;;;5.90;1.63;;;15.30;91.20;;;;;;6333715;22;20085;-72
2022/08/06 06:48:08;;;;;;;9.52;2.47;;;15.30;91.30;;;;;;6335427;22;19999;-71
2022/08/06 06:50:45;;;;;;;10.38;1.95;;;15.30;91.30;;;;;;6335072;22;20429;-76
2022/08/06 06:53:14;;;;;;;7.38;1.67;;;15.30;91.30;;;;;;6334429;22;20063;-72
2022/08/06 06:55:41;;;;;;;5.00;2.00;;;15.30;91.60;;;;;;6334320;22;20006;-73
2022/08/06 06:58:19;;;;;;;6.38;1.85;;;15.30;91.30;;;;;;6333649;22;20028;-73
2022/08/06 07:00:46;;;;;;;7.55;2.00;;;15.30;91.30;;;;;;6334808;22;19999;-70
2022/08/06 07:03:14;;;;;;;8.02;1.63;;;15.30;91.30;;;;;;6334985;22;20001;-76
2022/08/06 07:05:44;;;;;;;3.13;1.45;;;15.40;91.40;;;;;;6334220;22;20044;-72
2022/08/06 07:08:13;;;;;;;10.27;1.45;;;15.40;91.40;;;;;;6335593;22;19995;-72
2022/08/06 07:10:41;;;;;;;3.63;1.65;;;15.40;91.40;;;;;;6333896;22;19999;-76
2022/08/06 07:13:10;;;;;;;8.73;2.67;;;15.40;91.40;;;;;;6335597;22;19995;-71
2022/08/06 07:15:40;;;;;;;4.13;1.38;;;15.40;91.40;;;;;;6333490;22;20040;-77
2022/08/06 07:18:08;;;;;;;5.07;2.22;;;15.40;91.40;;;;;;6334232;22;20333;-77
2022/08/06 07:20:35;;;;;;;3.70;1.40;;;15.40;91.40;;;;;;6333022;22;20007;-74
2022/08/06 07:23:07;;;;;;;8.02;2.35;;;15.50;91.40;;;;;;6333845;22;20295;-71
2022/08/06 07:25:40;;;;;;;3.08;1.42;;;15.50;91.40;;;;;;6334485;22;20041;-76
2022/08/06 07:28:11;;;;;;;2.65;1.58;;;15.50;91.40;;;;;;6333511;22;20006;-72
2022/08/06 07:30:38;;;;;;;8.52;2.03;;;15.50;91.40;;;;;;6334534;22;19995;-77
2022/08/06 07:33:05;;;;;;;3.25;1.23;;;15.50;91.40;;;;;;6333419;22;20006;-75
2022/08/06 07:35:31;;;;;;;7.93;2.08;;;15.50;91.30;;;;;;6333920;22;19999;-73
2022/08/06 07:38:06;;;;;;;5.07;2.47;;;15.50;91.40;;;;;;6333775;22;20045;-77
2022/08/06 07:40:47;;;;;;;9.45;1.95;;;15.50;91.40;;;;;;6323583;22;20293;-70
2022/08/06 07:43:19;;;;;;;4.07;1.50;;;15.60;91.40;;;;;;6328968;22;20022;-74
2022/08/06 07:45:49;;;;;;;4.82;1.50;;;15.60;91.40;;;;;;6333287;22;20014;-70
2022/08/06 07:48:21;;;;;;;5.90;1.40;;;15.60;91.40;;;;;;6334519;22;19999;-71
2022/08/06 07:50:49;;;;;;;6.20;1.45;;;15.70;91.30;;;;;;6305819;22;20299;-77
2022/08/06 07:53:17;;;;;;;5.05;2.03;;;15.70;91.30;;;;;;6333064;22;20013;-73
2022/08/06 07:55:44;;;;;;;8.05;2.00;;;15.70;91.30;;;;;;6334718;22;19999;-75
2022/08/06 07:58:11;;;;;;;6.35;1.63;;;15.70;91.20;;;;;;6332979;22;20002;-77
2022/08/06 08:00:39;;;;;;;3.17;1.02;;;15.80;91.30;;;;;;6334433;22;19999;-75
2022/08/06 08:08:57;;;;;;;4.35;2.00;;;15.80;91.10;;;;;;6313784;22;20006;-76
2022/08/06 08:11:26;;;;;;;6.05;1.42;;;15.90;90.90;;;;;;6333784;22;19995;-72
2022/08/06 08:13:55;;;;;;;2.08;0.85;;;15.90;90.80;;;;;;6334498;22;20326;-77
2022/08/06 08:16:22;;;;;;;2.50;1.20;;;15.90;90.70;;;;;;6332693;22;20010;-76
2022/08/06 08:18:49;;;;;;;2.97;1.52;;;15.90;90.60;;;;;;6334246;22;20428;-70
2022/08/06 08:21:17;;;;;;;16.58;2.50;;;16.00;90.50;;;;;;6334228;22;20001;-75
2022/08/06 08:23:45;;;;;;;3.35;1.50;;;16.00;90.50;;;;;;6332891;22;20003;-74
2022/08/06 08:26:11;;;;;;;5.95;1.63;;;16.00;90.40;;;;;;6333580;22;20338;-74
2022/08/06 08:28:38;;;;;;;5.03;1.20;;;16.10;90.30;;;;;;6332577;22;20475;-78
2022/08/06 08:31:06;;;;;;;4.13;1.40;;;16.10;90.20;;;;;;6333850;22;20013;-71
2022/08/06 08:33:33;;;;;;;3.40;2.03;;;16.10;90.00;;;;;;6333117;22;20003;-69
2022/08/06 08:36:01;;;;;;;3.72;1.45;;;16.20;89.90;;;;;;6306561;22;20007;-74
2022/08/06 08:38:28;;;;;;;3.60;1.30;;;16.20;89.70;;;;;;6332277;22;20013;-78
2022/08/06 08:40:57;;;;;;;1.27;1.10;;;16.20;89.50;;;;;;6333299;22;20074;-78
2022/08/06 08:43:30;;;;;;;4.18;1.17;;;16.30;89.20;;;;;;6334203;22;20017;-75
2022/08/06 08:46:02;;;;;;;2.88;1.48;;;16.30;89.10;;;;;;6332630;22;20011;-77
2022/08/06 08:48:30;;;;;;;4.65;1.23;;;16.40;89.00;;;;;;6335745;22;20010;-76
2022/08/06 08:50:59;;;;;;;2.10;1.30;;;16.40;88.80;;;;;;6334559;22;19994;-73
2022/08/06 08:53:41;;;;;;;6.03;1.42;;;16.40;88.60;;;;;;6335616;22;19995;-69
2022/08/06 08:56:08;;;;;;;4.35;1.30;;;16.40;88.40;;;;;;6335807;22;20444;-70
2022/08/06 08:58:36;;;;;;;3.42;1.75;;;16.50;88.80;;;;;;6334866;22;20014;-74
2022/08/06 09:01:08;;;;;;;4.32;1.52;;;16.50;87.80;;;;;;6336002;22;20003;-73
2022/08/06 09:03:36;;;;;;;2.17;1.10;;;16.50;87.60;;;;;;6334115;22;20003;-69
2022/08/06 09:06:04;;;;;;;3.30;1.73;;;16.60;87.20;;;;;;6335596;22;20089;-72
2022/08/06 09:08:32;;;;;;;1.17;1.05;;;16.70;87.00;;;;;;6334987;22;20022;-77
2022/08/06 09:10:59;;;;;;;4.35;1.70;;;16.70;86.70;;;;;;6335635;22;20440;-74
2022/08/06 09:13:27;;;;;;;2.25;1.23;;;16.70;86.40;;;;;;6335599;22;19995;-78
2022/08/06 09:15:54;;;;;;;3.75;1.02;;;16.80;86.20;;;;;;6335618;22;19994;-75
2022/08/06 09:18:22;;;;;;;1.58;0.68;;;16.80;85.70;;;;;;6336457;22;19999;-75
2022/08/06 09:20:49;;;;;;;3.78;1.27;;;16.80;85.20;;;;;;6334603;22;20471;-73
2022/08/06 09:23:16;;;;;;;3.78;0.95;;;16.90;84.90;;;;;;6335627;22;20026;-74
2022/08/06 09:25:48;;;;;;;3.10;0.90;;;16.90;84.50;;;;;;6333932;22;20082;-73
2022/08/06 09:28:41;;;;;;;3.75;1.40;;;16.90;84.10;;;;;;6335690;22;19995;-71
2022/08/06 09:31:14;;;;;;;2.88;1.08;;;17.00;83.90;;;;;;6335884;22;20433;-71
2022/08/06 09:33:52;;;;;;;1.83;0.93;;;17.00;83.80;;;;;;6334887;22;20013;-70
2022/08/06 09:36:19;;;;;;;2.45;1.00;;;17.00;83.60;;;;;;6335536;22;20003;-73
2022/08/06 09:38:47;;;;;;;5.20;2.17;;;17.10;83.50;;;;;;6333246;22;20517;-76
2022/08/06 09:41:15;;;;;;;3.03;0.65;;;17.10;83.30;;;;;;6335628;22;19999;-76
2022/08/06 09:43:43;;;;;;;2.90;0.75;;;17.20;83.20;;;;;;6335326;22;20003;-77
2022/08/06 09:46:10;;;;;;;1.73;0.80;;;17.20;82.60;;;;;;6334335;22;20003;-78
2022/08/06 09:48:37;;;;;;;4.57;1.00;;;17.30;82.40;;;;;;6335310;22;20007;-77
2022/08/06 09:51:03;;;;;;;1.48;0.98;;;17.30;82.20;;;;;;6334010;22;19995;-74
2022/08/06 09:53:30;;;;;;;1.33;0.65;;;17.30;82.10;;;;;;6335071;22;20095;-74
2022/08/06 09:55:57;;;;;;;3.38;1.20;;;17.40;81.90;;;;;;6334613;22;20022;-70
2022/08/06 09:58:34;;;;;;;2.13;1.35;;;17.40;81.80;;;;;;6335220;22;19999;-69
2022/08/06 10:01:19;;;;;;;1.88;1.67;;;17.50;81.60;;;;;;6334934;22;20056;-74
2022/08/06 10:03:46;;;;;;;10.40;1.85;;;17.50;81.30;;;;;;6333973;22;20011;-76
2022/08/06 10:06:21;;;;;;;4.40;1.10;;;17.50;80.90;;;;;;6335291;22;20014;-74
2022/08/06 10:08:50;;;;;;;7.82;1.10;;;17.60;80.70;;;;;;6334262;22;20063;-76
2022/08/06 10:11:39;;;;;;;17.08;1.85;;;17.60;80.60;;;;;;6335728;22;19999;-76
2022/08/06 10:14:06;;;;;;;8.13;1.38;;;17.70;80.40;;;;;;6335755;22;19998;-76
2022/08/06 10:16:32;;;;;;;6.82;1.17;;;17.70;80.20;;;;;;6334412;22;20006;-73
2022/08/06 10:19:02;;;;;;;9.85;1.30;;;17.80;80.10;;;;;;6334689;22;19999;-72
2022/08/06 10:21:32;;;;;;;4.70;0.82;;;17.80;79.90;;;;;;6334594;22;20430;-76
2022/08/06 10:24:05;;;;;;;3.67;0.70;;;17.90;79.70;;;;;;6335150;22;20002;-76
2022/08/06 10:26:33;;;;;;;3.00;0.90;;;17.90;79.30;;;;;;6333813;22;20090;-78
2022/08/06 10:29:06;;;;;;;0.35;0.30;;;17.90;78.70;;;;;;6334663;22;20070;-77
2022/08/06 10:31:34;;;;;;;4.55;0.88;;;18.00;78.30;;;;;;6334627;22;20035;-75
2022/08/06 10:34:16;;;;;;;2.70;1.08;;;18.00;77.90;;;;;;6305930;22;20299;-78
2022/08/06 10:36:54;;;;;;;10.25;1.08;;;18.00;77.80;;;;;;6334924;22;20003;-73
2022/08/06 10:39:26;;;;;;;7.22;1.65;;;18.10;77.80;;;;;;6333498;22;19998;-75
2022/08/06 10:41:55;;;;;;;4.03;0.77;;;18.20;77.70;;;;;;6334775;22;20005;-74
2022/08/06 10:44:23;;;;;;;1.95;0.98;;;18.20;77.60;;;;;;6335454;22;20002;-68
2022/08/06 10:46:52;;;;;;;1.40;0.80;;;18.20;77.50;;;;;;6334632;22;20038;-76
2022/08/06 10:49:20;;;;;;;1.48;0.68;;;18.30;77.60;;;;;;6335300;22;20044;-75
2022/08/06 10:51:49;;;;;;;2.67;0.88;;;18.40;77.30;;;;;;6333524;22;19995;-71
2022/08/06 10:54:18;;;;;;;2.03;0.73;;;18.40;77.00;;;;;;6334887;22;20005;-75
2022/08/06 10:56:46;;;;;;;3.05;0.80;;;18.40;76.80;;;;;;6333870;22;20101;-77
2022/08/06 10:59:17;;;;;;;2.35;0.95;;;18.50;76.80;;;;;;6334574;22;20010;-75
2022/08/06 11:02:11;;;;;;;1.98;1.08;;;18.50;76.70;;;;;;6334384;22;20028;-72
2022/08/06 11:04:40;;;;;;;3.95;0.77;;;18.60;76.40;;;;;;6333122;22;20046;-70
2022/08/06 11:07:29;;;;;;;22.02;1.27;;;18.60;76.30;;;;;;6334448;22;20007;-75
2022/08/06 11:10:21;;;;;;;2.47;0.50;;;18.70;76.00;;;;;;6333159;22;20005;-73
2022/08/06 11:12:52;;;;;;;13.73;1.83;;;18.70;75.80;;;;;;6333795;22;19999;-75
2022/08/06 11:15:20;;;;;;;7.93;2.80;;;18.80;75.50;;;;;;6334665;22;20145;-72
2022/08/06 11:18:05;;;;;;;8.35;2.70;;;18.80;75.40;;;;;;6305398;22;20006;-75
2022/08/06 11:20:32;;;;;;;7.70;1.45;;;18.90;74.80;;;;;;6334869;22;20006;-77
2022/08/06 11:23:05;;;;;;;14.60;1.73;;;18.90;74.20;;;;;;6334233;22;20307;-80
2022/08/06 11:25:52;;;;;;;15.32;1.80;;;18.90;73.30;;;;;;6306111;22;20036;-77
2022/08/06 11:28:39;;;;;;;10.55;2.80;;;19.00;73.60;;;;;;6334649;22;20415;-74
2022/08/06 11:31:10;;;;;;;40.67;8.90;;;19.00;73.30;;;;;;6306630;22;20074;-75
2022/08/06 11:33:36;;;;;;;28.02;7.07;;;19.10;72.70;;;;;;6334817;22;20067;-76
2022/08/06 11:36:12;;;;;;;162.32;24.52;;;19.30;71.40;;;;;;6334306;22;20069;-70
2022/08/06 11:38:48;;;;;;;108.78;15.38;;;19.50;70.10;;;;;;6334248;22;20041;-72
2022/08/06 11:41:32;;;;;;;45.88;9.07;;;19.70;69.20;;;;;;6335099;22;19999;-71
2022/08/06 11:44:06;;;;;;;26.83;5.07;;;19.80;69.00;;;;;;6333392;22;19998;-80
2022/08/06 11:46:41;;;;;;;19.02;2.83;;;19.90;69.20;;;;;;6334754;22;20022;-78
2022/08/06 11:49:16;;;;;;;7.43;3.70;;;19.90;69.60;;;;;;6333065;22;20016;-74
2022/08/06 11:51:48;;;;;;;;;;;19.90;70.30;;;;;;6335407;22;20072;-75
2022/08/06 11:54:28;;;;;;;2.67;2.40;;;19.90;71.20;;;;;;6334291;22;19981;-76
2022/08/06 11:57:04;;;;;;;3.28;2.10;;;19.90;71.80;;;;;;6333407;22;20003;-76
2022/08/06 11:59:32;;;;;;;5.13;1.80;;;19.90;72.10;;;;;;6334697;22;20026;-69
2022/08/06 12:02:01;;;;;;;10.20;1.50;;;19.80;71.80;;;;;;6333587;22;20003;-76
2022/08/06 12:04:42;;;;;;;3.30;1.33;;;19.80;71.60;;;;;;6334653;22;20044;-79
2022/08/06 12:07:18;;;;;;;2.35;1.05;;;19.80;71.10;;;;;;6334409;22;20037;-78
2022/08/06 12:09:47;;;;;;;4.20;0.95;;;19.70;70.80;;;;;;6333342;22;20019;-78
2022/08/06 12:12:29;;;;;;;3.22;1.90;;;19.70;71.00;;;;;;6334374;22;20003;-69
2022/08/06 12:14:58;;;;;;;2.45;1.02;;;19.70;71.20;;;;;;6333886;22;20003;-77
2022/08/06 12:17:26;;;;;;;10.60;8.95;;;19.70;71.10;;;;;;6334119;22;20329;-77
2022/08/06 12:19:57;;;;;;;10.77;5.10;;;19.70;70.10;;;;;;6334030;22;19994;-81
2022/08/06 12:22:24;;;;;;;8.15;3.35;;;19.80;71.00;;;;;;6333976;22;19999;-81
2022/08/06 12:24:58;;;;;;;4.35;2.35;;;19.80;70.50;;;;;;6336618;22;20003;-76
2022/08/06 12:27:31;;;;;;;5.70;1.63;;;19.80;70.90;;;;;;6334768;22;20002;-75
2022/08/06 12:30:01;;;;;;;8.48;4.40;;;19.80;70.70;;;;;;6335647;22;19998;-70
2022/08/06 12:32:36;;;;;;;5.80;4.53;;;19.80;70.00;;;;;;6335505;22;20034;-79
2022/08/06 12:35:12;;;;;;;5.28;2.35;;;19.90;69.50;;;;;;6335812;22;19984;-75
2022/08/06 12:37:41;;;;;;;3.05;1.90;;;19.90;69.20;;;;;;6335654;22;19999;-76
2022/08/06 12:40:29;;;;;;;2.58;1.50;;;19.90;69.30;;;;;;6333854;22;19994;-77
2022/08/06 12:43:09;;;;;;;5.32;1.20;;;19.90;69.50;;;;;;6335646;22;20645;-80
2022/08/06 12:45:37;;;;;;;5.70;1.20;;;20.00;69.80;;;;;;6336183;22;20003;-70
2022/08/06 12:48:06;;;;;;;11.80;1.20;;;20.00;69.50;;;;;;6308525;22;20367;-74
2022/08/06 12:50:35;;;;;;;5.47;2.10;;;20.00;69.00;;;;;;6308831;22;20065;-73
2022/08/06 12:53:09;;;;;;;16.83;7.63;;;20.00;68.60;;;;;;6335041;22;20392;-77
2022/08/06 12:55:50;;;;;;;15.75;6.20;;;20.00;69.00;;;;;;6336628;22;20076;-75
2022/08/06 12:58:19;;;;;;;5.93;2.63;;;20.00;68.70;;;;;;6335037;22;20104;-75
2022/08/06 13:00:52;;;;;;;8.55;1.60;;;20.00;68.40;;;;;;6335477;22;19998;-71
2022/08/06 13:03:20;;;;;;;4.22;1.73;;;20.00;68.50;;;;;;6307247;22;20440;-76
2022/08/06 13:05:47;;;;;;;5.22;1.65;;;20.00;68.30;;;;;;6334055;22;20010;-77
2022/08/06 13:08:14;;;;;;;7.90;1.73;;;20.00;68.30;;;;;;6335582;22;20023;-72
2022/08/06 13:10:54;;;;;;;20.45;1.98;;;20.00;68.10;;;;;;6334231;22;19995;-73
2022/08/06 13:13:21;;;;;;;14.90;2.28;;;20.00;69.00;;;;;;6335147;22;19999;-74
2022/08/06 13:16:09;;;;;;;9.13;1.52;;;20.00;68.80;;;;;;6302606;22;20112;-72
2022/08/06 13:18:35;;;;;;;3.45;1.13;;;20.10;68.50;;;;;;6334032;22;20330;-73
2022/08/06 13:21:03;;;;;;;1.83;0.75;;;20.10;68.30;;;;;;6334725;22;20044;-73
2022/08/06 13:23:36;;;;;;;3.55;1.13;;;20.00;67.70;;;;;;6334786;22;20003;-76
2022/08/06 13:26:14;;;;;;;30.83;2.50;;;20.00;67.60;;;;;;6307931;22;20365;-77
2022/08/06 13:29:00;;;;;;;5.20;1.63;;;20.00;67.20;;;;;;6334578;22;20006;-74
2022/08/06 13:31:27;;;;;;;2.60;1.10;;;20.00;67.20;;;;;;6335573;22;19995;-78
2022/08/06 13:34:01;;;;;;;1.63;1.00;;;20.00;67.40;;;;;;6335783;22;20497;-79
2022/08/06 13:36:29;;;;;;;2.65;1.33;;;20.00;67.50;;;;;;6335097;22;20326;-82
2022/08/06 13:38:56;;;;;;;5.50;1.10;;;20.00;67.40;;;;;;6307335;22;20389;-72
2022/08/06 13:41:43;;;;;;;3.80;0.93;;;20.00;67.30;;;;;;6334150;22;19998;-74
2022/08/06 13:44:27;;;;;;;3.97;1.33;;;20.00;67.10;;;;;;6335661;22;20006;-82
2022/08/06 13:46:53;;;;;;;2.90;1.45;;;19.90;67.10;;;;;;6334621;22;20011;-80
2022/08/06 13:49:20;;;;;;;5.30;1.20;;;19.90;67.20;;;;;;6333196;22;20084;-72
2022/08/06 13:51:46;;;;;;;5.53;2.67;;;19.90;67.40;;;;;;6335387;22;20440;-79
2022/08/06 13:54:13;;;;;;;3.75;1.30;;;19.90;67.50;;;;;;6306208;22;20033;-80
2022/08/06 13:56:39;;;;;;;3.05;1.42;;;19.90;67.60;;;;;;6334355;22;20003;-77
2022/08/06 13:59:24;;;;;;;5.70;1.40;;;19.90;67.70;;;;;;6333557;22;20007;-77
2022/08/06 14:01:58;;;;;;;6.97;2.00;;;19.90;67.70;;;;;;6308873;22;19995;-76
2022/08/06 14:05:04;;;;;;;30.35;26.08;;;20.00;67.70;;;;;;6308620;22;20335;-75
2022/08/06 14:08:10;;;;;;;10.52;4.55;;;20.00;67.60;;;;;;6334869;22;20337;-75
2022/08/06 14:11:16;;;;;;;7.47;2.80;;;20.00;67.50;;;;;;6335696;22;20052;-83
2022/08/06 14:14:22;;;;;;;8.77;2.60;;;19.90;67.20;;;;;;6336749;22;20509;-82
2022/08/06 14:17:28;;;;;;;15.63;3.35;;;20.00;67.00;;;;;;6335034;22;20005;-83
2022/08/06 14:20:34;;;;;;;9.32;2.20;;;20.00;66.70;;;;;;6333426;22;20051;-78
2022/08/06 14:23:40;;;;;;;27.73;8.88;;;19.90;66.70;;;;;;6335971;22;19999;-83
2022/08/06 14:26:46;;;;;;;18.85;3.72;;;19.90;66.60;;;;;;6335620;22;20425;-75
2022/08/06 14:29:53;;;;;;;15.23;2.65;;;19.90;66.70;;;;;;6333038;22;20418;-77
2022/08/06 14:33:00;;;;;;;9.07;3.40;;;19.90;67.10;;;;;;6334212;22;20010;-75
2022/08/06 14:36:06;;;;;;;9.73;2.50;;;19.90;67.10;;;;;;6335322;22;20002;-74
2022/08/06 14:39:12;;;;;;;11.45;4.00;;;19.90;67.00;;;;;;6335196;22;20052;-82
2022/08/06 14:45:43;;;;;;;18.38;3.38;;;19.80;68.10;;;;;;6334021;22;20010;-75
2022/08/06 14:48:49;;;;;;;9.25;2.75;;;19.80;68.30;;;;;;6335494;22;20006;-77
2022/08/06 14:51:55;;;;;;;7.10;2.80;;;19.80;68.70;;;;;;6334257;22;20002;-77
2022/08/06 14:55:01;;;;;;;6.72;2.70;;;19.80;69.00;;;;;;6333487;22;20007;-79
2022/08/06 14:58:07;;;;;;;7.20;3.28;;;19.70;68.90;;;;;;6334496;22;19995;-77
2022/08/06 15:01:13;;;;;;;6.50;3.67;;;19.70;68.90;;;;;;6307416;22;19999;-78
2022/08/06 15:04:19;;;;;;;7.93;3.40;;;19.70;69.10;;;;;;6333487;22;20011;-77
2022/08/06 15:07:25;;;;;;;7.53;3.90;;;19.70;69.30;;;;;;6334475;22;20430;-72
2022/08/06 15:09:52;;;;;;;16.63;5.28;;;19.70;69.30;;;;;;6335660;22;19995;-74
2022/08/06 15:12:18;;;;;;;8.60;4.57;;;19.60;69.70;;;;;;6333280;22;20400;-75
2022/08/06 15:14:45;;;;;;;22.05;14.80;;;19.60;70.10;;;;;;6335321;22;20010;-78
2022/08/06 15:17:11;;;;;;;29.63;17.85;;;19.60;69.80;;;;;;6334055;22;19999;-75
2022/08/06 15:19:38;;;;;;;18.90;12.13;;;19.60;69.90;;;;;;6334167;22;20002;-74
2022/08/06 15:22:04;;;;;;;22.63;8.38;;;19.60;70.20;;;;;;6334594;22;20006;-76
2022/08/06 15:24:34;;;;;;;25.88;7.88;;;19.50;70.30;;;;;;6333240;22;20036;-78
2022/08/06 15:27:04;;;;;;;25.70;7.88;;;19.50;69.90;;;;;;6334836;22;20015;-77
2022/08/06 15:29:31;;;;;;;10.85;5.55;;;19.40;69.90;;;;;;6333532;22;19994;-76
2022/08/06 15:31:57;;;;;;;14.10;6.65;;;19.40;70.30;;;;;;6334096;22;20020;-77
2022/08/06 15:34:24;;;;;;;19.95;6.60;;;19.40;70.60;;;;;;6333998;22;20706;-78
2022/08/06 15:36:50;;;;;;;23.77;6.53;;;19.30;70.80;;;;;;6334549;22;20022;-73
2022/08/06 15:39:17;;;;;;;14.52;6.03;;;19.30;71.00;;;;;;6333765;22;19999;-75
2022/08/06 15:41:43;;;;;;;13.35;4.60;;;19.30;71.20;;;;;;6333661;22;20465;-74
2022/08/06 15:44:10;;;;;;;12.60;4.10;;;19.30;71.20;;;;;;6335199;22;20007;-76
2022/08/06 15:46:36;;;;;;;13.60;4.63;;;19.20;71.30;;;;;;6332615;22;20514;-74
2022/08/06 15:49:03;;;;;;;15.98;7.65;;;19.20;71.50;;;;;;6334091;22;20049;-74
2022/08/06 15:51:29;;;;;;;17.85;7.72;;;19.20;71.70;;;;;;6331910;22;20014;-75
2022/08/06 15:53:56;;;;;;;17.23;7.50;;;19.20;71.80;;;;;;6334178;22;20442;-77
2022/08/06 15:56:22;;;;;;;13.38;7.03;;;19.10;71.80;;;;;;6333161;22;20006;-76
2022/08/06 15:58:49;;;;;;;22.73;8.48;;;19.10;71.90;;;;;;6333810;22;20055;-71
2022/08/06 16:01:15;;;;;;;32.95;9.68;;;19.00;72.00;;;;;;6334832;22;20037;-78
2022/08/06 16:03:42;;;;;;;24.52;8.07;;;19.00;72.00;;;;;;6305191;22;20018;-75
2022/08/06 16:06:08;;;;;;;22.98;8.43;;;19.00;72.40;;;;;;6333884;22;20082;-78
2022/08/06 16:08:35;;;;;;;11.85;5.97;;;19.00;72.60;;;;;;6332822;22;20075;-74
2022/08/06 16:11:02;;;;;;;10.73;5.85;;;18.90;72.70;;;;;;6332156;22;20026;-80
2022/08/06 16:13:28;;;;;;;25.08;12.30;;;18.90;73.00;;;;;;6333073;22;19998;-74
2022/08/06 16:15:57;;;;;;;22.77;11.90;;;18.80;73.70;;;;;;6306129;22;20060;-76
2022/08/06 16:18:24;;;;;;;23.00;9.55;;;18.80;72.90;;;;;;6333668;22;20388;-73
2022/08/06 16:20:51;;;;;;;15.55;8.20;;;18.80;73.60;;;;;;6333024;22;20414;-80
2022/08/06 16:23:18;;;;;;;13.45;7.53;;;18.80;73.10;;;;;;6333751;22;19998;-76
2022/08/06 16:25:44;;;;;;;19.73;9.43;;;18.70;73.00;;;;;;6331891;22;20067;-74
2022/08/06 16:28:51;;;;;;;14.57;7.80;;;18.70;73.30;;;;;;6306136;22;20000;-71
2022/08/06 16:31:57;;;;;;;13.18;6.20;;;18.60;73.40;;;;;;6333393;22;19999;-74
2022/08/06 16:35:03;;;;;;;13.05;5.90;;;18.60;73.80;;;;;;6333463;22;19999;-71
2022/08/06 16:38:09;;;;;;;21.75;6.95;;;18.60;74.10;;;;;;6333941;22;20483;-73
2022/08/06 16:41:15;;;;;;;30.35;9.82;;;18.50;74.50;;;;;;6333333;22;20364;-74
2022/08/06 16:44:21;;;;;;;19.30;7.53;;;18.50;74.80;;;;;;6332694;22;20007;-77
2022/08/06 16:47:28;;;;;;;14.23;6.90;;;18.50;75.10;;;;;;6332407;22;20330;-73
2022/08/06 16:50:36;;;;;;;14.38;7.45;;;18.50;75.10;;;;;;6306341;22;20598;-73